NDF412 EGLL-EDDH
Flight info
| Callsign | NDF412 |
|---|---|
| Flight time | 1h 19m |
| Altitude | 37000 |
| Route | BPK Q295 SOMVA DCT MAVAS DCT GASTU DCT OSTOR/N0368F230 T904 RIBSO RIBSO7A |
| Aircraft | A320/M-SDE3FGHIRWY/LB1 |
Departure
| Time | 2026-05-07 18:38 |
|---|---|
| Airport | London Heathrow Airport (EGLL) |
Arrival
| Time | 2026-05-07 19:57 |
|---|---|
| Airport | Hamburg Helmut Schmidt Airport (EDDH) |
| Time | Latitude | Longitude | Altitude | Speed | Heading |
|---|---|---|---|---|---|
| 2026-05-07 17:54 | 51.46898 | -0.45942 | 90 ft | 0 kts | 57° |
| 2026-05-07 17:58 | 51.46897 | -0.45942 | 90 ft | 0 kts | 57° |
| 2026-05-07 18:04 | 51.46897 | -0.45943 | 85 ft | 0 kts | 57° |
| 2026-05-07 18:19 | 51.46890 | -0.45962 | 88 ft | 2 kts | 58° |
| 2026-05-07 18:20 | 51.46886 | -0.45971 | 86 ft | 0 kts | 58° |
| 2026-05-07 18:20 | 51.46886 | -0.45973 | 86 ft | 1 kts | 58° |
| 2026-05-07 18:20 | 51.46885 | -0.45975 | 87 ft | 0 kts | 58° |
| 2026-05-07 18:20 | 51.46880 | -0.45987 | 86 ft | 1 kts | 58° |
| 2026-05-07 18:21 | 51.46875 | -0.46000 | 88 ft | 1 kts | 58° |
| 2026-05-07 18:21 | 51.46868 | -0.46022 | 89 ft | 2 kts | 80° |
| 2026-05-07 18:21 | 51.46867 | -0.46047 | 88 ft | 0 kts | 110° |
| 2026-05-07 18:27 | 51.46865 | -0.46040 | 89 ft | 4 kts | 112° |
| 2026-05-07 18:27 | 51.46842 | -0.46003 | 88 ft | 6 kts | 148° |
| 2026-05-07 18:27 | 51.46808 | -0.45986 | 87 ft | 9 kts | 171° |
| 2026-05-07 18:28 | 51.46752 | -0.46051 | 86 ft | 9 kts | 262° |
| 2026-05-07 18:28 | 51.46751 | -0.46205 | 85 ft | 16 kts | 269° |
| 2026-05-07 18:28 | 51.46749 | -0.46374 | 85 ft | 14 kts | 269° |
| 2026-05-07 18:28 | 51.46749 | -0.46474 | 85 ft | 13 kts | 269° |
| 2026-05-07 18:29 | 51.46749 | -0.46609 | 85 ft | 11 kts | 270° |
| 2026-05-07 18:29 | 51.46749 | -0.46730 | 85 ft | 12 kts | 270° |
| 2026-05-07 18:29 | 51.46749 | -0.46868 | 85 ft | 12 kts | 270° |
| 2026-05-07 18:29 | 51.46749 | -0.46983 | 85 ft | 10 kts | 270° |
| 2026-05-07 18:30 | 51.46750 | -0.47090 | 87 ft | 9 kts | 270° |
| 2026-05-07 18:30 | 51.46750 | -0.47195 | 85 ft | 13 kts | 268° |
| 2026-05-07 18:30 | 51.46747 | -0.47428 | 88 ft | 21 kts | 270° |
| 2026-05-07 18:30 | 51.46746 | -0.47628 | 85 ft | 16 kts | 270° |
| 2026-05-07 18:31 | 51.46746 | -0.47796 | 85 ft | 14 kts | 269° |
| 2026-05-07 18:31 | 51.46745 | -0.47944 | 85 ft | 12 kts | 269° |
| 2026-05-07 18:31 | 51.46744 | -0.48068 | 85 ft | 9 kts | 269° |
| 2026-05-07 18:31 | 51.46744 | -0.48106 | 85 ft | 0 kts | 268° |
| 2026-05-07 18:33 | 51.46743 | -0.48123 | 85 ft | 7 kts | 268° |
| 2026-05-07 18:33 | 51.46743 | -0.48280 | 85 ft | 16 kts | 270° |
| 2026-05-07 18:33 | 51.46744 | -0.48444 | 85 ft | 14 kts | 269° |
| 2026-05-07 18:33 | 51.46741 | -0.48587 | 85 ft | 12 kts | 268° |
| 2026-05-07 18:34 | 51.46733 | -0.48702 | 85 ft | 10 kts | 254° |
| 2026-05-07 18:34 | 51.46689 | -0.48752 | 90 ft | 7 kts | 182° |
| 2026-05-07 18:34 | 51.46638 | -0.48752 | 86 ft | 11 kts | 183° |
| 2026-05-07 18:34 | 51.46599 | -0.48769 | 88 ft | 0 kts | 202° |
| 2026-05-07 18:35 | 51.46552 | -0.48788 | 87 ft | 10 kts | 183° |
| 2026-05-07 18:35 | 51.46493 | -0.48749 | 86 ft | 9 kts | 135° |
| 2026-05-07 18:35 | 51.46476 | -0.48648 | 88 ft | 10 kts | 90° |
| 2026-05-07 18:36 | 51.46476 | -0.48604 | 87 ft | 0 kts | 90° |
| 2026-05-07 18:37 | 51.46476 | -0.48596 | 86 ft | 6 kts | 90° |
| 2026-05-07 18:37 | 51.46477 | -0.48216 | 87 ft | 69 kts | 90° |
| 2026-05-07 18:37 | 51.46482 | -0.47106 | 84 ft | 126 kts | 89° |
| 2026-05-07 18:37 | 51.46488 | -0.45445 | 108 ft | 168 kts | 90° |
| 2026-05-07 18:38 | 51.46482 | -0.43551 | 685 ft | 172 kts | 92° |
| 2026-05-07 18:38 | 51.46554 | -0.41613 | 1371 ft | 177 kts | 78° |
| 2026-05-07 18:38 | 51.47183 | -0.39922 | 2015 ft | 185 kts | 48° |
| 2026-05-07 18:38 | 51.48099 | -0.38297 | 2377 ft | 207 kts | 50° |
| 2026-05-07 18:39 | 51.49071 | -0.36500 | 2743 ft | 226 kts | 50° |
| 2026-05-07 18:39 | 51.50130 | -0.34497 | 3251 ft | 244 kts | 50° |
| 2026-05-07 18:39 | 51.51258 | -0.32347 | 3889 ft | 257 kts | 51° |
| 2026-05-07 18:39 | 51.52284 | -0.29974 | 4732 ft | 262 kts | 67° |
| 2026-05-07 18:40 | 51.52906 | -0.27209 | 5573 ft | 267 kts | 71° |
| 2026-05-07 18:40 | 51.53508 | -0.24369 | 5903 ft | 269 kts | 71° |
| 2026-05-07 18:40 | 51.54122 | -0.21523 | 6001 ft | 269 kts | 68° |
| 2026-05-07 18:40 | 51.55228 | -0.19153 | 6010 ft | 268 kts | 34° |
| 2026-05-07 18:41 | 51.56952 | -0.18053 | 6012 ft | 269 kts | 12° |
| 2026-05-07 18:41 | 51.58794 | -0.17439 | 6033 ft | 270 kts | 14° |
| 2026-05-07 18:41 | 51.60629 | -0.16773 | 6034 ft | 271 kts | 12° |
| 2026-05-07 18:41 | 51.62449 | -0.16131 | 6035 ft | 271 kts | 13° |
| 2026-05-07 18:42 | 51.64275 | -0.15440 | 6036 ft | 271 kts | 14° |
| 2026-05-07 18:42 | 51.66107 | -0.14691 | 6037 ft | 271 kts | 15° |
| 2026-05-07 18:42 | 51.67929 | -0.13904 | 6037 ft | 271 kts | 15° |
| 2026-05-07 18:42 | 51.69746 | -0.13095 | 6037 ft | 271 kts | 15° |
| 2026-05-07 18:43 | 51.71559 | -0.12266 | 6036 ft | 271 kts | 17° |
| 2026-05-07 18:43 | 51.73247 | -0.10952 | 6034 ft | 270 kts | 37° |
| 2026-05-07 18:43 | 51.74547 | -0.08793 | 6083 ft | 271 kts | 57° |
| 2026-05-07 18:43 | 51.75305 | -0.05981 | 6760 ft | 275 kts | 77° |
| 2026-05-07 18:44 | 51.75613 | -0.02924 | 7588 ft | 278 kts | 83° |
| 2026-05-07 18:44 | 51.75882 | 0.00197 | 8360 ft | 284 kts | 83° |
| 2026-05-07 18:44 | 51.76153 | 0.03394 | 9117 ft | 290 kts | 84° |
| 2026-05-07 18:44 | 51.76423 | 0.06641 | 9888 ft | 295 kts | 84° |
| 2026-05-07 18:45 | 51.76697 | 0.09963 | 10456 ft | 307 kts | 84° |
| 2026-05-07 18:45 | 51.76984 | 0.13514 | 10677 ft | 330 kts | 84° |
| 2026-05-07 18:45 | 51.77286 | 0.17266 | 11124 ft | 342 kts | 84° |
| 2026-05-07 18:45 | 51.77600 | 0.21111 | 11814 ft | 347 kts | 84° |
| 2026-05-07 18:46 | 51.77913 | 0.24935 | 12533 ft | 350 kts | 84° |
| 2026-05-07 18:46 | 51.78231 | 0.28857 | 13244 ft | 353 kts | 84° |
| 2026-05-07 18:46 | 51.78549 | 0.32810 | 13941 ft | 356 kts | 84° |
| 2026-05-07 18:46 | 51.78871 | 0.36804 | 14543 ft | 360 kts | 84° |
| 2026-05-07 18:47 | 51.79195 | 0.40838 | 15130 ft | 364 kts | 84° |
| 2026-05-07 18:47 | 51.79519 | 0.44912 | 15721 ft | 368 kts | 84° |
| 2026-05-07 18:47 | 51.79843 | 0.49031 | 16007 ft | 371 kts | 84° |
| 2026-05-07 18:47 | 51.80168 | 0.53168 | 16074 ft | 371 kts | 84° |
| 2026-05-07 18:48 | 51.80493 | 0.57303 | 16081 ft | 371 kts | 84° |
| 2026-05-07 18:48 | 51.80818 | 0.61439 | 16089 ft | 371 kts | 84° |
| 2026-05-07 18:48 | 51.81315 | 0.65532 | 16188 ft | 375 kts | 74° |
| 2026-05-07 18:48 | 51.82246 | 0.69447 | 16833 ft | 377 kts | 68° |
| 2026-05-07 18:49 | 51.83268 | 0.73363 | 17442 ft | 380 kts | 68° |
| 2026-05-07 18:49 | 51.84293 | 0.77330 | 18040 ft | 384 kts | 68° |
| 2026-05-07 18:49 | 51.85319 | 0.81329 | 18581 ft | 387 kts | 68° |
| 2026-05-07 18:49 | 51.86341 | 0.85315 | 19081 ft | 390 kts | 68° |
| 2026-05-07 18:50 | 51.87387 | 0.89389 | 19593 ft | 393 kts | 68° |
| 2026-05-07 18:50 | 51.88373 | 0.93230 | 20057 ft | 396 kts | 68° |
| 2026-05-07 18:50 | 51.89435 | 0.97359 | 20552 ft | 399 kts | 68° |
| 2026-05-07 18:50 | 51.90504 | 1.01514 | 21047 ft | 401 kts | 68° |
| 2026-05-07 18:51 | 51.91580 | 1.05705 | 21517 ft | 404 kts | 68° |
| 2026-05-07 18:51 | 51.92660 | 1.09928 | 21981 ft | 407 kts | 68° |
| 2026-05-07 18:51 | 51.93745 | 1.14188 | 22442 ft | 410 kts | 68° |
| 2026-05-07 18:51 | 51.94833 | 1.18483 | 22895 ft | 414 kts | 68° |
| 2026-05-07 18:52 | 51.95930 | 1.22812 | 23333 ft | 417 kts | 68° |
| 2026-05-07 18:52 | 51.97035 | 1.27172 | 23750 ft | 420 kts | 68° |
| 2026-05-07 18:52 | 51.98145 | 1.31563 | 24114 ft | 422 kts | 68° |
| 2026-05-07 18:52 | 51.99264 | 1.35986 | 24482 ft | 425 kts | 68° |
| 2026-05-07 18:53 | 52.00386 | 1.40432 | 24849 ft | 427 kts | 68° |
| 2026-05-07 18:53 | 52.01516 | 1.44916 | 25206 ft | 430 kts | 68° |
| 2026-05-07 18:53 | 52.02649 | 1.49417 | 25561 ft | 432 kts | 68° |
| 2026-05-07 18:53 | 52.03783 | 1.53941 | 25929 ft | 433 kts | 68° |
| 2026-05-07 18:54 | 52.04917 | 1.58481 | 26315 ft | 435 kts | 68° |
| 2026-05-07 18:54 | 52.06053 | 1.63045 | 26663 ft | 437 kts | 68° |
| 2026-05-07 18:54 | 52.07192 | 1.67636 | 27011 ft | 439 kts | 68° |
| 2026-05-07 18:54 | 52.08333 | 1.72247 | 27344 ft | 441 kts | 68° |
| 2026-05-07 18:55 | 52.09480 | 1.76882 | 27673 ft | 443 kts | 68° |
| 2026-05-07 18:55 | 52.10634 | 1.81545 | 28005 ft | 445 kts | 68° |
| 2026-05-07 18:55 | 52.11793 | 1.86232 | 28336 ft | 448 kts | 68° |
| 2026-05-07 18:55 | 52.12955 | 1.90946 | 28657 ft | 450 kts | 68° |
| 2026-05-07 18:56 | 52.14117 | 1.95690 | 28978 ft | 452 kts | 68° |
| 2026-05-07 18:56 | 52.15280 | 2.00453 | 29291 ft | 454 kts | 68° |
| 2026-05-07 18:56 | 52.16449 | 2.05238 | 29600 ft | 456 kts | 68° |
| 2026-05-07 18:56 | 52.17626 | 2.10049 | 29892 ft | 458 kts | 68° |
| 2026-05-07 18:57 | 52.18806 | 2.14876 | 30171 ft | 460 kts | 68° |
| 2026-05-07 18:57 | 52.19993 | 2.19733 | 30404 ft | 462 kts | 68° |
| 2026-05-07 18:57 | 52.21180 | 2.24605 | 30641 ft | 464 kts | 69° |
| 2026-05-07 18:57 | 52.22369 | 2.29500 | 30871 ft | 465 kts | 69° |
| 2026-05-07 18:58 | 52.23558 | 2.34425 | 31094 ft | 467 kts | 69° |
| 2026-05-07 18:58 | 52.24728 | 2.39293 | 31403 ft | 467 kts | 69° |
| 2026-05-07 18:58 | 52.25910 | 2.44222 | 31737 ft | 466 kts | 69° |
| 2026-05-07 18:58 | 52.27083 | 2.49135 | 32126 ft | 463 kts | 69° |
| 2026-05-07 18:59 | 52.28252 | 2.54029 | 32518 ft | 461 kts | 69° |
| 2026-05-07 18:59 | 52.29414 | 2.58901 | 32855 ft | 460 kts | 69° |
| 2026-05-07 18:59 | 52.30565 | 2.63771 | 33174 ft | 459 kts | 71° |
| 2026-05-07 18:59 | 52.31502 | 2.68764 | 33473 ft | 459 kts | 75° |
| 2026-05-07 19:00 | 52.32385 | 2.73771 | 33777 ft | 458 kts | 75° |
| 2026-05-07 19:00 | 52.33268 | 2.78780 | 34076 ft | 458 kts | 75° |
| 2026-05-07 19:00 | 52.34148 | 2.83782 | 34339 ft | 458 kts | 75° |
| 2026-05-07 19:00 | 52.35028 | 2.88795 | 34584 ft | 458 kts | 75° |
| 2026-05-07 19:01 | 52.35904 | 2.93800 | 34821 ft | 458 kts | 75° |
| 2026-05-07 19:01 | 52.36778 | 2.98809 | 35047 ft | 458 kts | 75° |
| 2026-05-07 19:01 | 52.37651 | 3.03832 | 35253 ft | 459 kts | 75° |
| 2026-05-07 19:01 | 52.38518 | 3.08853 | 35466 ft | 459 kts | 75° |
| 2026-05-07 19:02 | 52.39387 | 3.13881 | 35681 ft | 459 kts | 74° |
| 2026-05-07 19:02 | 52.40466 | 3.18794 | 35875 ft | 459 kts | 66° |
| 2026-05-07 19:02 | 52.41791 | 3.23481 | 36079 ft | 460 kts | 65° |
| 2026-05-07 19:02 | 52.43137 | 3.28232 | 36266 ft | 460 kts | 65° |
| 2026-05-07 19:03 | 52.44483 | 3.32991 | 36461 ft | 460 kts | 65° |
| 2026-05-07 19:03 | 52.45824 | 3.37750 | 36642 ft | 460 kts | 65° |
| 2026-05-07 19:03 | 52.47164 | 3.42525 | 36826 ft | 460 kts | 66° |
| 2026-05-07 19:03 | 52.48497 | 3.47292 | 37035 ft | 460 kts | 66° |
| 2026-05-07 19:04 | 52.49825 | 3.52062 | 37106 ft | 459 kts | 66° |
| 2026-05-07 19:04 | 52.52467 | 3.61576 | 37111 ft | 457 kts | 66° |
| 2026-05-07 19:05 | 52.55104 | 3.71079 | 37109 ft | 457 kts | 66° |
| 2026-05-07 19:05 | 52.57738 | 3.80582 | 37109 ft | 457 kts | 66° |
| 2026-05-07 19:06 | 52.60357 | 3.90105 | 37112 ft | 457 kts | 66° |
| 2026-05-07 19:06 | 52.64271 | 4.04402 | 37102 ft | 457 kts | 66° |
| 2026-05-07 19:07 | 52.66870 | 4.13962 | 37103 ft | 457 kts | 66° |
| 2026-05-07 19:07 | 52.69463 | 4.23517 | 37111 ft | 457 kts | 66° |
| 2026-05-07 19:08 | 52.72027 | 4.33019 | 37117 ft | 456 kts | 66° |
| 2026-05-07 19:08 | 52.74609 | 4.42643 | 37118 ft | 455 kts | 67° |
| 2026-05-07 19:09 | 52.77145 | 4.52142 | 37115 ft | 455 kts | 67° |
| 2026-05-07 19:09 | 52.79700 | 4.61707 | 37118 ft | 455 kts | 67° |
| 2026-05-07 19:10 | 52.82246 | 4.71279 | 37111 ft | 455 kts | 67° |
| 2026-05-07 19:10 | 52.84781 | 4.80862 | 37111 ft | 455 kts | 67° |
| 2026-05-07 19:11 | 52.87310 | 4.90457 | 37113 ft | 455 kts | 67° |
| 2026-05-07 19:11 | 52.89832 | 5.00068 | 37113 ft | 455 kts | 67° |
| 2026-05-07 19:12 | 52.92342 | 5.09676 | 37113 ft | 454 kts | 67° |
| 2026-05-07 19:12 | 52.94838 | 5.19296 | 37122 ft | 454 kts | 68° |
| 2026-05-07 19:13 | 52.97327 | 5.28924 | 37123 ft | 454 kts | 68° |
| 2026-05-07 19:13 | 52.99808 | 5.38554 | 37124 ft | 454 kts | 68° |
| 2026-05-07 19:14 | 53.02283 | 5.48187 | 37126 ft | 453 kts | 68° |
| 2026-05-07 19:14 | 53.04749 | 5.57821 | 37125 ft | 453 kts | 68° |
| 2026-05-07 19:15 | 53.07206 | 5.67480 | 37115 ft | 454 kts | 68° |
| 2026-05-07 19:15 | 53.09636 | 5.77088 | 37117 ft | 454 kts | 68° |
| 2026-05-07 19:16 | 53.12083 | 5.86777 | 37136 ft | 454 kts | 68° |
| 2026-05-07 19:16 | 53.14522 | 5.96467 | 37145 ft | 453 kts | 68° |
| 2026-05-07 19:17 | 53.16940 | 6.06155 | 37142 ft | 452 kts | 68° |
| 2026-05-07 19:17 | 53.19347 | 6.15840 | 37124 ft | 452 kts | 68° |
| 2026-05-07 19:18 | 53.21753 | 6.25529 | 37126 ft | 452 kts | 68° |
| 2026-05-07 19:18 | 53.23748 | 6.33576 | 37127 ft | 451 kts | 68° |
| 2026-05-07 19:19 | 53.26133 | 6.43277 | 37129 ft | 451 kts | 69° |
| 2026-05-07 19:19 | 53.28502 | 6.52986 | 37129 ft | 451 kts | 69° |
| 2026-05-07 19:20 | 53.30872 | 6.62709 | 37119 ft | 451 kts | 69° |
| 2026-05-07 19:20 | 53.33236 | 6.72441 | 37115 ft | 452 kts | 69° |
| 2026-05-07 19:21 | 53.35590 | 6.82200 | 37115 ft | 452 kts | 69° |
| 2026-05-07 19:21 | 53.37934 | 6.91975 | 37114 ft | 453 kts | 69° |
| 2026-05-07 19:22 | 53.40279 | 7.01763 | 37114 ft | 453 kts | 69° |
| 2026-05-07 19:22 | 53.42621 | 7.11570 | 37111 ft | 454 kts | 69° |
| 2026-05-07 19:23 | 53.44940 | 7.21345 | 37123 ft | 454 kts | 69° |
| 2026-05-07 19:23 | 53.47265 | 7.31201 | 37133 ft | 455 kts | 69° |
| 2026-05-07 19:24 | 53.49587 | 7.41078 | 37128 ft | 455 kts | 69° |
| 2026-05-07 19:24 | 53.51901 | 7.50972 | 36897 ft | 455 kts | 69° |
| 2026-05-07 19:25 | 53.53058 | 7.55926 | 35560 ft | 459 kts | 69° |
| 2026-05-07 19:25 | 53.54220 | 7.60909 | 34704 ft | 452 kts | 69° |
| 2026-05-07 19:25 | 53.55349 | 7.65769 | 33936 ft | 442 kts | 69° |
| 2026-05-07 19:25 | 53.56454 | 7.70545 | 32967 ft | 434 kts | 69° |
| 2026-05-07 19:26 | 53.57538 | 7.75243 | 32045 ft | 427 kts | 69° |
| 2026-05-07 19:26 | 53.58605 | 7.79869 | 31133 ft | 421 kts | 69° |
| 2026-05-07 19:26 | 53.59659 | 7.84439 | 30266 ft | 416 kts | 69° |
| 2026-05-07 19:26 | 53.60694 | 7.88946 | 29265 ft | 411 kts | 69° |
| 2026-05-07 19:27 | 53.61719 | 7.93420 | 28167 ft | 409 kts | 69° |
| 2026-05-07 19:27 | 53.62739 | 7.97878 | 27101 ft | 406 kts | 69° |
| 2026-05-07 19:27 | 53.63736 | 8.02320 | 26064 ft | 404 kts | 70° |
| 2026-05-07 19:27 | 53.64652 | 8.06780 | 25145 ft | 399 kts | 72° |
| 2026-05-07 19:28 | 53.65487 | 8.11181 | 24634 ft | 387 kts | 73° |
| 2026-05-07 19:28 | 53.66275 | 8.15492 | 24202 ft | 383 kts | 73° |
| 2026-05-07 19:28 | 53.67056 | 8.19773 | 23735 ft | 381 kts | 73° |
| 2026-05-07 19:28 | 53.67840 | 8.24027 | 23203 ft | 378 kts | 72° |
| 2026-05-07 19:29 | 53.68627 | 8.28239 | 22728 ft | 375 kts | 72° |
| 2026-05-07 19:29 | 53.69413 | 8.32411 | 22258 ft | 372 kts | 72° |
| 2026-05-07 19:29 | 53.70188 | 8.36498 | 21801 ft | 369 kts | 72° |
| 2026-05-07 19:29 | 53.70966 | 8.40601 | 21343 ft | 366 kts | 72° |
| 2026-05-07 19:30 | 53.71738 | 8.44690 | 20879 ft | 364 kts | 72° |
| 2026-05-07 19:30 | 53.72501 | 8.48754 | 20434 ft | 362 kts | 72° |
| 2026-05-07 19:30 | 53.73260 | 8.52791 | 19984 ft | 360 kts | 72° |
| 2026-05-07 19:30 | 53.74016 | 8.56822 | 19528 ft | 359 kts | 72° |
| 2026-05-07 19:31 | 53.74766 | 8.60832 | 19091 ft | 358 kts | 72° |
| 2026-05-07 19:31 | 53.75514 | 8.64843 | 18652 ft | 357 kts | 72° |
| 2026-05-07 19:31 | 53.76256 | 8.68837 | 18187 ft | 356 kts | 72° |
| 2026-05-07 19:31 | 53.76994 | 8.72814 | 17728 ft | 353 kts | 72° |
| 2026-05-07 19:32 | 53.77726 | 8.76764 | 17310 ft | 351 kts | 72° |
| 2026-05-07 19:32 | 53.78454 | 8.80690 | 16877 ft | 348 kts | 72° |
| 2026-05-07 19:32 | 53.79173 | 8.84579 | 16458 ft | 346 kts | 72° |
| 2026-05-07 19:32 | 53.79886 | 8.88460 | 16037 ft | 344 kts | 72° |
| 2026-05-07 19:33 | 53.80589 | 8.92317 | 15623 ft | 343 kts | 73° |
| 2026-05-07 19:33 | 53.81289 | 8.96174 | 15216 ft | 341 kts | 73° |
| 2026-05-07 19:33 | 53.81967 | 8.99910 | 15079 ft | 331 kts | 73° |
| 2026-05-07 19:33 | 53.82594 | 9.03598 | 14954 ft | 322 kts | 78° |
| 2026-05-07 19:34 | 53.82804 | 9.07299 | 14824 ft | 310 kts | 92° |
| 2026-05-07 19:34 | 53.82626 | 9.10822 | 14697 ft | 291 kts | 96° |
| 2026-05-07 19:34 | 53.82428 | 9.14150 | 14471 ft | 279 kts | 96° |
| 2026-05-07 19:34 | 53.82239 | 9.17386 | 14082 ft | 275 kts | 96° |
| 2026-05-07 19:35 | 53.82052 | 9.20589 | 13616 ft | 272 kts | 96° |
| 2026-05-07 19:35 | 53.81870 | 9.23757 | 13146 ft | 269 kts | 96° |
| 2026-05-07 19:35 | 53.81690 | 9.26898 | 12664 ft | 267 kts | 96° |
| 2026-05-07 19:35 | 53.81510 | 9.30008 | 12182 ft | 264 kts | 96° |
| 2026-05-07 19:36 | 53.81174 | 9.33034 | 11719 ft | 261 kts | 107° |
| 2026-05-07 19:36 | 53.80496 | 9.35859 | 11258 ft | 258 kts | 119° |
| 2026-05-07 19:36 | 53.79534 | 9.38395 | 11110 ft | 256 kts | 124° |
| 2026-05-07 19:36 | 53.78529 | 9.40900 | 11120 ft | 258 kts | 124° |
| 2026-05-07 19:37 | 53.77519 | 9.43408 | 11121 ft | 258 kts | 127° |
| 2026-05-07 19:37 | 53.76203 | 9.45428 | 11120 ft | 257 kts | 150° |
| 2026-05-07 19:37 | 53.74529 | 9.46439 | 11124 ft | 257 kts | 173° |
| 2026-05-07 19:37 | 53.72747 | 9.46283 | 11090 ft | 259 kts | 194° |
| 2026-05-07 19:38 | 53.71088 | 9.45029 | 10493 ft | 264 kts | 212° |
| 2026-05-07 19:38 | 53.69474 | 9.43726 | 10141 ft | 254 kts | 189° |
| 2026-05-07 19:38 | 53.67732 | 9.43745 | 9665 ft | 250 kts | 167° |
| 2026-05-07 19:38 | 53.66059 | 9.44510 | 9069 ft | 251 kts | 167° |
| 2026-05-07 19:39 | 53.64321 | 9.44395 | 8472 ft | 255 kts | 198° |
| 2026-05-07 19:39 | 53.62851 | 9.42797 | 8032 ft | 252 kts | 230° |
| 2026-05-07 19:39 | 53.62091 | 9.40200 | 7786 ft | 248 kts | 261° |
| 2026-05-07 19:39 | 53.62221 | 9.37366 | 7493 ft | 244 kts | 292° |
| 2026-05-07 19:40 | 53.63187 | 9.35092 | 7173 ft | 240 kts | 324° |
| 2026-05-07 19:40 | 53.64691 | 9.34032 | 6857 ft | 235 kts | 357° |
| 2026-05-07 19:40 | 53.66250 | 9.34476 | 6554 ft | 231 kts | 29° |
| 2026-05-07 19:40 | 53.67408 | 9.36262 | 6243 ft | 227 kts | 62° |
| 2026-05-07 19:41 | 53.67781 | 9.38802 | 5954 ft | 226 kts | 94° |
| 2026-05-07 19:41 | 53.67279 | 9.41288 | 5655 ft | 227 kts | 120° |
| 2026-05-07 19:41 | 53.66414 | 9.43527 | 5317 ft | 228 kts | 124° |
| 2026-05-07 19:41 | 53.65511 | 9.45717 | 5041 ft | 227 kts | 124° |
| 2026-05-07 19:42 | 53.64609 | 9.47887 | 4768 ft | 225 kts | 124° |
| 2026-05-07 19:42 | 53.63714 | 9.50040 | 4496 ft | 223 kts | 124° |
| 2026-05-07 19:42 | 53.62826 | 9.52177 | 4217 ft | 222 kts | 124° |
| 2026-05-07 19:42 | 53.61945 | 9.54300 | 4031 ft | 221 kts | 124° |
| 2026-05-07 19:43 | 53.61070 | 9.56432 | 4002 ft | 220 kts | 123° |
| 2026-05-07 19:43 | 53.59998 | 9.58237 | 4000 ft | 223 kts | 150° |
| 2026-05-07 19:43 | 53.58480 | 9.58793 | 4004 ft | 230 kts | 184° |
| 2026-05-07 19:43 | 53.56975 | 9.57878 | 4009 ft | 235 kts | 209° |
| 2026-05-07 19:44 | 53.55618 | 9.56331 | 4005 ft | 236 kts | 213° |
| 2026-05-07 19:44 | 53.54288 | 9.54706 | 4003 ft | 236 kts | 214° |
| 2026-05-07 19:44 | 53.52961 | 9.53072 | 4001 ft | 236 kts | 214° |
| 2026-05-07 19:44 | 53.51636 | 9.51434 | 4000 ft | 236 kts | 214° |
| 2026-05-07 19:45 | 53.50311 | 9.49798 | 3996 ft | 236 kts | 214° |
| 2026-05-07 19:45 | 53.48987 | 9.48163 | 3998 ft | 236 kts | 214° |
| 2026-05-07 19:45 | 53.47660 | 9.46525 | 3996 ft | 236 kts | 214° |
| 2026-05-07 19:45 | 53.46336 | 9.44892 | 3994 ft | 236 kts | 214° |
| 2026-05-07 19:46 | 53.45010 | 9.43255 | 3994 ft | 236 kts | 214° |
| 2026-05-07 19:46 | 53.43686 | 9.41622 | 3983 ft | 236 kts | 214° |
| 2026-05-07 19:46 | 53.42341 | 9.40212 | 3973 ft | 219 kts | 195° |
| 2026-05-07 19:46 | 53.40901 | 9.40042 | 3980 ft | 209 kts | 169° |
| 2026-05-07 19:47 | 53.39478 | 9.40490 | 3910 ft | 208 kts | 164° |
| 2026-05-07 19:47 | 53.38060 | 9.40953 | 3780 ft | 206 kts | 163° |
| 2026-05-07 19:47 | 53.36861 | 9.42122 | 3660 ft | 200 kts | 127° |
| 2026-05-07 19:47 | 53.36355 | 9.44220 | 3534 ft | 196 kts | 90° |
| 2026-05-07 19:48 | 53.36545 | 9.46466 | 3391 ft | 195 kts | 77° |
| 2026-05-07 19:48 | 53.36903 | 9.48667 | 3112 ft | 197 kts | 75° |
| 2026-05-07 19:48 | 53.37432 | 9.50766 | 2983 ft | 198 kts | 54° |
| 2026-05-07 19:48 | 53.38416 | 9.52396 | 2985 ft | 201 kts | 42° |
| 2026-05-07 19:49 | 53.39509 | 9.53859 | 2983 ft | 201 kts | 40° |
| 2026-05-07 19:49 | 53.40617 | 9.55299 | 2984 ft | 202 kts | 40° |
| 2026-05-07 19:49 | 53.41740 | 9.56708 | 2982 ft | 201 kts | 41° |
| 2026-05-07 19:49 | 53.42762 | 9.58295 | 2984 ft | 200 kts | 49° |
| 2026-05-07 19:50 | 53.43677 | 9.60004 | 2976 ft | 191 kts | 51° |
| 2026-05-07 19:50 | 53.44526 | 9.61674 | 2999 ft | 186 kts | 52° |
| 2026-05-07 19:50 | 53.45358 | 9.63328 | 3003 ft | 184 kts | 52° |
| 2026-05-07 19:50 | 53.46202 | 9.65013 | 3016 ft | 196 kts | 52° |
| 2026-05-07 19:51 | 53.47089 | 9.66782 | 3009 ft | 199 kts | 52° |
| 2026-05-07 19:51 | 53.47976 | 9.68550 | 3005 ft | 193 kts | 52° |
| 2026-05-07 19:51 | 53.48790 | 9.70174 | 3023 ft | 175 kts | 52° |
| 2026-05-07 19:51 | 53.49545 | 9.71685 | 3005 ft | 165 kts | 52° |
| 2026-05-07 19:52 | 53.50271 | 9.73138 | 3006 ft | 160 kts | 53° |
| 2026-05-07 19:52 | 53.50985 | 9.74569 | 3008 ft | 159 kts | 53° |
| 2026-05-07 19:52 | 53.51698 | 9.75997 | 3009 ft | 159 kts | 53° |
| 2026-05-07 19:52 | 53.52410 | 9.77425 | 2950 ft | 160 kts | 53° |
| 2026-05-07 19:53 | 53.53122 | 9.78851 | 2807 ft | 159 kts | 53° |
| 2026-05-07 19:53 | 53.53830 | 9.80274 | 2594 ft | 159 kts | 53° |
| 2026-05-07 19:53 | 53.54536 | 9.81690 | 2390 ft | 155 kts | 52° |
| 2026-05-07 19:53 | 53.55213 | 9.83049 | 2192 ft | 149 kts | 53° |
| 2026-05-07 19:54 | 53.55863 | 9.84356 | 1985 ft | 147 kts | 53° |
| 2026-05-07 19:54 | 53.56516 | 9.85668 | 1782 ft | 146 kts | 53° |
| 2026-05-07 19:54 | 53.57163 | 9.86970 | 1577 ft | 143 kts | 52° |
| 2026-05-07 19:54 | 53.57787 | 9.88227 | 1402 ft | 138 kts | 52° |
| 2026-05-07 19:55 | 53.58396 | 9.89454 | 1207 ft | 136 kts | 52° |
| 2026-05-07 19:55 | 53.58995 | 9.90660 | 1020 ft | 132 kts | 52° |
| 2026-05-07 19:55 | 53.59579 | 9.91837 | 829 ft | 131 kts | 52° |
| 2026-05-07 19:55 | 53.60164 | 9.93018 | 651 ft | 132 kts | 50° |
| 2026-05-07 19:56 | 53.60754 | 9.94208 | 474 ft | 132 kts | 51° |
| 2026-05-07 19:56 | 53.61344 | 9.95400 | 282 ft | 133 kts | 51° |
| 2026-05-07 19:56 | 53.61937 | 9.96596 | 109 ft | 132 kts | 50° |
| 2026-05-07 19:56 | 53.62493 | 9.97723 | 40 ft | 108 kts | 50° |
| 2026-05-07 19:57 | 53.62840 | 9.98431 | 45 ft | 55 kts | 50° |
| 2026-05-07 19:57 | 53.63053 | 9.98883 | 43 ft | 43 kts | 59° |
| 2026-05-07 19:57 | 53.63088 | 9.99150 | 44 ft | 7 kts | 91° |
| 2026-05-07 19:57 | 53.63088 | 9.99164 | 44 ft | 3 kts | 91° |
| 2026-05-07 19:58 | 53.63088 | 9.99179 | 44 ft | 0 kts | 91° |
| 2026-05-07 19:58 | 53.63087 | 9.99203 | 44 ft | 7 kts | 92° |
| 2026-05-07 19:58 | 53.63085 | 9.99279 | 44 ft | 6 kts | 93° |
| 2026-05-07 19:58 | 53.63087 | 9.99348 | 45 ft | 4 kts | 79° |
| 2026-05-07 19:59 | 53.63090 | 9.99362 | 45 ft | 0 kts | 73° |
| 2026-05-07 19:59 | 53.63097 | 9.99405 | 45 ft | 11 kts | 73° |
| 2026-05-07 19:59 | 53.63137 | 9.99495 | 45 ft | 9 kts | 52° |
| 2026-05-07 19:59 | 53.63180 | 9.99587 | 44 ft | 8 kts | 52° |
| 2026-05-07 20:00 | 53.63205 | 9.99641 | 43 ft | 5 kts | 52° |
| 2026-05-07 20:00 | 53.63222 | 9.99678 | 43 ft | 3 kts | 54° |
| 2026-05-07 20:00 | 53.63227 | 9.99704 | 43 ft | 4 kts | 78° |
| 2026-05-07 20:00 | 53.63206 | 9.99780 | 45 ft | 8 kts | 150° |
| 2026-05-07 20:01 | 53.63156 | 9.99819 | 45 ft | 11 kts | 152° |
| 2026-05-07 20:01 | 53.63087 | 9.99878 | 45 ft | 10 kts | 152° |
| 2026-05-07 20:01 | 53.63030 | 9.99928 | 45 ft | 8 kts | 153° |
| 2026-05-07 20:01 | 53.62980 | 9.99970 | 45 ft | 9 kts | 153° |
| 2026-05-07 20:02 | 53.62930 | 10.00012 | 46 ft | 7 kts | 153° |
| 2026-05-07 20:02 | 53.62890 | 10.00042 | 46 ft | 6 kts | 161° |
| 2026-05-07 20:02 | 53.62828 | 10.00085 | 46 ft | 10 kts | 154° |
| 2026-05-07 20:02 | 53.62770 | 10.00136 | 46 ft | 9 kts | 152° |
| 2026-05-07 20:03 | 53.62746 | 10.00202 | 46 ft | 6 kts | 73° |
| 2026-05-07 20:03 | 53.62768 | 10.00260 | 46 ft | 5 kts | 62° |
| 2026-05-07 20:03 | 53.62774 | 10.00278 | 46 ft | 0 kts | 62° |